sensor_id;sensor_type;location;lat;lon;timestamp;temperature;humidity
6581;DHT22;3324;50.796;7.228;2022-09-09T00:00:25;17.40;99.90
6581;DHT22;3324;50.796;7.228;2022-09-09T00:03:12;17.40;99.90
6581;DHT22;3324;50.796;7.228;2022-09-09T00:05:54;17.60;99.90
6581;DHT22;3324;50.796;7.228;2022-09-09T00:08:25;17.60;99.90
6581;DHT22;3324;50.796;7.228;2022-09-09T00:10:59;17.60;99.90
6581;DHT22;3324;50.796;7.228;2022-09-09T00:13:37;17.60;99.90
6581;DHT22;3324;50.796;7.228;2022-09-09T00:16:22;17.70;99.90
6581;DHT22;3324;50.796;7.228;2022-09-09T00:19:13;17.70;99.90
6581;DHT22;3324;50.796;7.228;2022-09-09T00:22:31;17.70;99.90
6581;DHT22;3324;50.796;7.228;2022-09-09T00:27:14;17.60;99.90
6581;DHT22;3324;50.796;7.228;2022-09-09T00:29:54;17.70;99.90
6581;DHT22;3324;50.796;7.228;2022-09-09T00:32:21;17.60;99.90
6581;DHT22;3324;50.796;7.228;2022-09-09T00:35:16;17.60;99.90
6581;DHT22;3324;50.796;7.228;2022-09-09T00:37:45;17.60;99.90
6581;DHT22;3324;50.796;7.228;2022-09-09T00:43:10;17.60;99.90
6581;DHT22;3324;50.796;7.228;2022-09-09T00:54:33;17.50;99.90
6581;DHT22;3324;50.796;7.228;2022-09-09T00:59:57;17.40;99.90
6581;DHT22;3324;50.796;7.228;2022-09-09T01:11:20;17.40;99.90
6581;DHT22;3324;50.796;7.228;2022-09-09T01:13:52;17.40;99.90
6581;DHT22;3324;50.796;7.228;2022-09-09T01:16:18;17.40;99.90
6581;DHT22;3324;50.796;7.228;2022-09-09T01:18:48;17.40;99.90
6581;DHT22;3324;50.796;7.228;2022-09-09T01:24:27;17.40;99.90
6581;DHT22;3324;50.796;7.228;2022-09-09T01:27:00;17.30;99.90
6581;DHT22;3324;50.796;7.228;2022-09-09T01:29:26;17.30;99.90
6581;DHT22;3324;50.796;7.228;2022-09-09T01:32:43;17.30;99.90
6581;DHT22;3324;50.796;7.228;2022-09-09T01:35:15;17.20;99.90
6581;DHT22;3324;50.796;7.228;2022-09-09T01:37:43;17.20;99.90
6581;DHT22;3324;50.796;7.228;2022-09-09T01:40:09;17.10;99.90
6581;DHT22;3324;50.796;7.228;2022-09-09T01:42:34;17.10;99.90
6581;DHT22;3324;50.796;7.228;2022-09-09T01:45:00;17.10;99.90
6581;DHT22;3324;50.796;7.228;2022-09-09T01:47:26;17.10;99.90
6581;DHT22;3324;50.796;7.228;2022-09-09T01:49:52;17.00;99.90
6581;DHT22;3324;50.796;7.228;2022-09-09T01:52:17;17.00;99.90
6581;DHT22;3324;50.796;7.228;2022-09-09T01:54:43;16.90;99.90
6581;DHT22;3324;50.796;7.228;2022-09-09T01:57:59;16.90;99.90
6581;DHT22;3324;50.796;7.228;2022-09-09T02:00:05;16.90;99.90
6581;DHT22;3324;50.796;7.228;2022-09-09T02:05:41;16.90;99.90
6581;DHT22;3324;50.796;7.228;2022-09-09T02:08:20;17.00;99.90
6581;DHT22;3324;50.796;7.228;2022-09-09T02:13:36;17.10;99.90
6581;DHT22;3324;50.796;7.228;2022-09-09T02:19:27;16.90;99.90
6581;DHT22;3324;50.796;7.228;2022-09-09T02:21:58;16.90;99.90
6581;DHT22;3324;50.796;7.228;2022-09-09T02:24:25;16.90;99.90
6581;DHT22;3324;50.796;7.228;2022-09-09T02:26:53;16.90;99.90
6581;DHT22;3324;50.796;7.228;2022-09-09T02:29:27;16.90;99.90
6581;DHT22;3324;50.796;7.228;2022-09-09T02:31:55;16.80;99.90
6581;DHT22;3324;50.796;7.228;2022-09-09T02:34:23;16.80;99.90
6581;DHT22;3324;50.796;7.228;2022-09-09T02:36:54;16.80;99.90
6581;DHT22;3324;50.796;7.228;2022-09-09T02:39:20;16.90;99.90
6581;DHT22;3324;50.796;7.228;2022-09-09T02:41:46;16.90;99.90
6581;DHT22;3324;50.796;7.228;2022-09-09T02:44:14;17.20;99.90
6581;DHT22;3324;50.796;7.228;2022-09-09T02:52:18;17.30;99.90
6581;DHT22;3324;50.796;7.228;2022-09-09T02:54:44;17.30;99.90
6581;DHT22;3324;50.796;7.228;2022-09-09T02:57:20;17.30;99.90
6581;DHT22;3324;50.796;7.228;2022-09-09T02:59:48;17.40;99.90
6581;DHT22;3324;50.796;7.228;2022-09-09T03:02:15;17.50;99.90
6581;DHT22;3324;50.796;7.228;2022-09-09T03:04:41;17.50;99.90
6581;DHT22;3324;50.796;7.228;2022-09-09T03:07:10;17.40;99.90
6581;DHT22;3324;50.796;7.228;2022-09-09T03:09:35;17.50;99.90
6581;DHT22;3324;50.796;7.228;2022-09-09T03:12:01;17.60;99.90
6581;DHT22;3324;50.796;7.228;2022-09-09T03:14:29;17.50;99.90
6581;DHT22;3324;50.796;7.228;2022-09-09T03:16:56;17.50;99.90
6581;DHT22;3324;50.796;7.228;2022-09-09T03:19:23;17.50;99.90
6581;DHT22;3324;50.796;7.228;2022-09-09T03:21:49;17.50;99.90
6581;DHT22;3324;50.796;7.228;2022-09-09T03:24:16;17.50;99.90
6581;DHT22;3324;50.796;7.228;2022-09-09T03:26:42;17.50;99.90
6581;DHT22;3324;50.796;7.228;2022-09-09T03:29:10;17.60;99.90
6581;DHT22;3324;50.796;7.228;2022-09-09T03:31:38;17.50;99.90
6581;DHT22;3324;50.796;7.228;2022-09-09T03:34:03;17.50;99.90
6581;DHT22;3324;50.796;7.228;2022-09-09T03:36:29;17.50;99.90
6581;DHT22;3324;50.796;7.228;2022-09-09T03:38:55;17.50;99.90
6581;DHT22;3324;50.796;7.228;2022-09-09T03:41:22;17.40;99.90
6581;DHT22;3324;50.796;7.228;2022-09-09T03:43:50;17.50;99.90
6581;DHT22;3324;50.796;7.228;2022-09-09T03:46:16;17.50;99.90
6581;DHT22;3324;50.796;7.228;2022-09-09T03:48:42;17.50;99.90
6581;DHT22;3324;50.796;7.228;2022-09-09T03:51:07;17.40;99.90
6581;DHT22;3324;50.796;7.228;2022-09-09T03:53:33;17.40;99.90
6581;DHT22;3324;50.796;7.228;2022-09-09T03:55:59;17.30;99.90
6581;DHT22;3324;50.796;7.228;2022-09-09T03:58:26;17.30;99.90
6581;DHT22;3324;50.796;7.228;2022-09-09T04:01:00;17.30;99.90
6581;DHT22;3324;50.796;7.228;2022-09-09T04:03:27;17.20;99.90
6581;DHT22;3324;50.796;7.228;2022-09-09T04:05:53;17.30;99.90
6581;DHT22;3324;50.796;7.228;2022-09-09T04:08:20;17.20;99.90
6581;DHT22;3324;50.796;7.228;2022-09-09T04:10:48;17.10;99.90
6581;DHT22;3324;50.796;7.228;2022-09-09T04:13:15;17.10;99.90
6581;DHT22;3324;50.796;7.228;2022-09-09T04:15:41;17.00;99.90
6581;DHT22;3324;50.796;7.228;2022-09-09T04:18:07;16.90;99.90
6581;DHT22;3324;50.796;7.228;2022-09-09T04:20:33;16.90;99.90
6581;DHT22;3324;50.796;7.228;2022-09-09T04:22:59;16.80;99.90
6581;DHT22;3324;50.796;7.228;2022-09-09T04:25:24;16.80;99.90
6581;DHT22;3324;50.796;7.228;2022-09-09T04:27:56;16.90;99.90
6581;DHT22;3324;50.796;7.228;2022-09-09T04:30:23;16.90;99.90
6581;DHT22;3324;50.796;7.228;2022-09-09T04:32:49;16.80;99.90
6581;DHT22;3324;50.796;7.228;2022-09-09T04:35:15;16.80;99.90
6581;DHT22;3324;50.796;7.228;2022-09-09T04:37:41;16.70;99.90
6581;DHT22;3324;50.796;7.228;2022-09-09T04:40:07;16.80;99.90
6581;DHT22;3324;50.796;7.228;2022-09-09T04:42:38;16.80;99.90
6581;DHT22;3324;50.796;7.228;2022-09-09T04:45:05;16.70;99.90
6581;DHT22;3324;50.796;7.228;2022-09-09T04:47:33;16.70;99.90
6581;DHT22;3324;50.796;7.228;2022-09-09T04:50:01;16.80;99.90
6581;DHT22;3324;50.796;7.228;2022-09-09T04:52:26;16.70;99.90
6581;DHT22;3324;50.796;7.228;2022-09-09T04:54:52;16.80;99.90
6581;DHT22;3324;50.796;7.228;2022-09-09T04:57:19;16.80;99.90
6581;DHT22;3324;50.796;7.228;2022-09-09T04:59:45;16.70;99.90
6581;DHT22;3324;50.796;7.228;2022-09-09T05:02:11;16.80;99.90
6581;DHT22;3324;50.796;7.228;2022-09-09T05:04:37;16.70;99.90
6581;DHT22;3324;50.796;7.228;2022-09-09T05:07:02;16.80;99.90
6581;DHT22;3324;50.796;7.228;2022-09-09T05:09:28;16.80;99.90
6581;DHT22;3324;50.796;7.228;2022-09-09T05:11:54;16.80;99.90
6581;DHT22;3324;50.796;7.228;2022-09-09T05:14:21;16.90;99.90
6581;DHT22;3324;50.796;7.228;2022-09-09T05:16:47;16.90;99.90
6581;DHT22;3324;50.796;7.228;2022-09-09T05:19:15;16.90;99.90
6581;DHT22;3324;50.796;7.228;2022-09-09T05:21:40;16.90;99.90
6581;DHT22;3324;50.796;7.228;2022-09-09T05:24:07;16.80;99.90
6581;DHT22;3324;50.796;7.228;2022-09-09T05:26:32;16.80;99.90
6581;DHT22;3324;50.796;7.228;2022-09-09T05:28:58;16.90;99.90
6581;DHT22;3324;50.796;7.228;2022-09-09T05:31:26;16.90;99.90
6581;DHT22;3324;50.796;7.228;2022-09-09T05:33:54;16.90;99.90
6581;DHT22;3324;50.796;7.228;2022-09-09T05:36:21;17.00;99.90
6581;DHT22;3324;50.796;7.228;2022-09-09T05:38:47;17.20;99.90
6581;DHT22;3324;50.796;7.228;2022-09-09T05:41:15;17.20;99.90
6581;DHT22;3324;50.796;7.228;2022-09-09T05:43:41;17.30;99.90
6581;DHT22;3324;50.796;7.228;2022-09-09T05:46:12;17.40;99.90
6581;DHT22;3324;50.796;7.228;2022-09-09T05:48:42;17.30;99.90
6581;DHT22;3324;50.796;7.228;2022-09-09T05:51:13;17.30;99.90
6581;DHT22;3324;50.796;7.228;2022-09-09T05:53:41;17.20;99.90
6581;DHT22;3324;50.796;7.228;2022-09-09T05:56:08;17.20;99.90
6581;DHT22;3324;50.796;7.228;2022-09-09T05:58:38;17.20;99.90
6581;DHT22;3324;50.796;7.228;2022-09-09T06:01:07;17.10;99.90
6581;DHT22;3324;50.796;7.228;2022-09-09T06:03:37;17.10;99.90
6581;DHT22;3324;50.796;7.228;2022-09-09T06:06:06;17.10;99.90
6581;DHT22;3324;50.796;7.228;2022-09-09T06:08:33;17.10;99.90
6581;DHT22;3324;50.796;7.228;2022-09-09T06:11:03;17.20;99.90
6581;DHT22;3324;50.796;7.228;2022-09-09T06:13:30;17.20;99.90
6581;DHT22;3324;50.796;7.228;2022-09-09T06:15:56;17.20;99.90
6581;DHT22;3324;50.796;7.228;2022-09-09T06:18:22;17.20;99.90
6581;DHT22;3324;50.796;7.228;2022-09-09T06:20:55;17.10;99.90
6581;DHT22;3324;50.796;7.228;2022-09-09T06:23:21;17.10;99.90
6581;DHT22;3324;50.796;7.228;2022-09-09T06:25:46;17.10;99.90
6581;DHT22;3324;50.796;7.228;2022-09-09T06:28:12;17.00;99.90
6581;DHT22;3324;50.796;7.228;2022-09-09T06:30:38;17.00;99.90
6581;DHT22;3324;50.796;7.228;2022-09-09T06:33:05;17.10;99.90
6581;DHT22;3324;50.796;7.228;2022-09-09T06:35:31;17.10;99.90
6581;DHT22;3324;50.796;7.228;2022-09-09T06:37:56;17.10;99.90
6581;DHT22;3324;50.796;7.228;2022-09-09T06:40:24;17.10;99.90
6581;DHT22;3324;50.796;7.228;2022-09-09T06:42:49;17.20;99.90
6581;DHT22;3324;50.796;7.228;2022-09-09T06:45:15;17.10;99.90
6581;DHT22;3324;50.796;7.228;2022-09-09T06:47:41;17.20;99.90
6581;DHT22;3324;50.796;7.228;2022-09-09T06:50:07;17.20;99.90
6581;DHT22;3324;50.796;7.228;2022-09-09T06:52:33;17.20;99.90
6581;DHT22;3324;50.796;7.228;2022-09-09T06:54:59;17.30;99.90
6581;DHT22;3324;50.796;7.228;2022-09-09T06:57:24;17.40;99.90
6581;DHT22;3324;50.796;7.228;2022-09-09T06:59:50;17.50;99.90
6581;DHT22;3324;50.796;7.228;2022-09-09T07:02:16;17.70;99.90
6581;DHT22;3324;50.796;7.228;2022-09-09T07:04:41;17.70;99.90
6581;DHT22;3324;50.796;7.228;2022-09-09T07:07:08;17.70;99.90
6581;DHT22;3324;50.796;7.228;2022-09-09T07:09:35;17.80;99.90
6581;DHT22;3324;50.796;7.228;2022-09-09T07:12:00;17.90;99.90
6581;DHT22;3324;50.796;7.228;2022-09-09T07:14:26;18.00;99.90
6581;DHT22;3324;50.796;7.228;2022-09-09T07:16:52;18.10;99.90
6581;DHT22;3324;50.796;7.228;2022-09-09T07:19:18;18.30;99.90
6581;DHT22;3324;50.796;7.228;2022-09-09T07:21:44;18.50;99.90
6581;DHT22;3324;50.796;7.228;2022-09-09T07:24:10;18.50;99.90
6581;DHT22;3324;50.796;7.228;2022-09-09T07:26:38;18.60;99.90
6581;DHT22;3324;50.796;7.228;2022-09-09T07:29:04;18.70;99.90
6581;DHT22;3324;50.796;7.228;2022-09-09T07:31:31;18.80;99.90
6581;DHT22;3324;50.796;7.228;2022-09-09T07:33:57;18.80;99.90
6581;DHT22;3324;50.796;7.228;2022-09-09T07:36:26;18.90;99.90
6581;DHT22;3324;50.796;7.228;2022-09-09T07:38:57;18.90;99.90
6581;DHT22;3324;50.796;7.228;2022-09-09T07:41:43;18.90;99.90
6581;DHT22;3324;50.796;7.228;2022-09-09T07:44:13;19.00;99.90
6581;DHT22;3324;50.796;7.228;2022-09-09T07:46:39;19.00;99.90
6581;DHT22;3324;50.796;7.228;2022-09-09T07:49:05;19.00;99.90
6581;DHT22;3324;50.796;7.228;2022-09-09T07:51:33;19.00;99.90
6581;DHT22;3324;50.796;7.228;2022-09-09T07:54:03;19.00;99.90
6581;DHT22;3324;50.796;7.228;2022-09-09T07:56:30;18.90;99.90
6581;DHT22;3324;50.796;7.228;2022-09-09T07:58:57;18.90;99.90
6581;DHT22;3324;50.796;7.228;2022-09-09T08:01:32;18.90;99.90
6581;DHT22;3324;50.796;7.228;2022-09-09T08:04:05;18.80;99.90
6581;DHT22;3324;50.796;7.228;2022-09-09T08:06:37;18.80;99.90
6581;DHT22;3324;50.796;7.228;2022-09-09T08:09:03;18.80;99.90
6581;DHT22;3324;50.796;7.228;2022-09-09T08:11:30;18.70;99.90
6581;DHT22;3324;50.796;7.228;2022-09-09T08:13:56;18.70;99.90
6581;DHT22;3324;50.796;7.228;2022-09-09T08:16:24;18.70;99.90
6581;DHT22;3324;50.796;7.228;2022-09-09T08:18:51;18.70;99.90
6581;DHT22;3324;50.796;7.228;2022-09-09T08:21:19;18.70;99.90
6581;DHT22;3324;50.796;7.228;2022-09-09T08:23:46;18.70;99.90
6581;DHT22;3324;50.796;7.228;2022-09-09T08:26:13;18.80;99.90
6581;DHT22;3324;50.796;7.228;2022-09-09T08:28:40;18.80;99.90
6581;DHT22;3324;50.796;7.228;2022-09-09T08:31:14;18.90;99.90
6581;DHT22;3324;50.796;7.228;2022-09-09T08:33:41;19.00;99.90
6581;DHT22;3324;50.796;7.228;2022-09-09T08:36:10;19.00;99.90
6581;DHT22;3324;50.796;7.228;2022-09-09T08:38:36;19.00;99.90
6581;DHT22;3324;50.796;7.228;2022-09-09T08:41:34;19.00;99.90
6581;DHT22;3324;50.796;7.228;2022-09-09T08:46:42;19.10;99.90
6581;DHT22;3324;50.796;7.228;2022-09-09T08:52:03;19.10;99.90
6581;DHT22;3324;50.796;7.228;2022-09-09T08:54:35;19.10;99.90
6581;DHT22;3324;50.796;7.228;2022-09-09T08:57:03;19.30;99.90
6581;DHT22;3324;50.796;7.228;2022-09-09T08:59:32;19.50;99.90
6581;DHT22;3324;50.796;7.228;2022-09-09T09:02:16;19.60;99.90
6581;DHT22;3324;50.796;7.228;2022-09-09T09:12:56;19.50;99.90
6581;DHT22;3324;50.796;7.228;2022-09-09T09:15:25;19.50;99.90
6581;DHT22;3324;50.796;7.228;2022-09-09T09:17:52;19.60;99.90
6581;DHT22;3324;50.796;7.228;2022-09-09T09:20:27;19.70;99.90
6581;DHT22;3324;50.796;7.228;2022-09-09T09:23:00;19.80;99.90
6581;DHT22;3324;50.796;7.228;2022-09-09T09:25:32;19.90;99.90
6581;DHT22;3324;50.796;7.228;2022-09-09T09:28:03;19.90;99.90
6581;DHT22;3324;50.796;7.228;2022-09-09T09:30:40;20.10;99.90
6581;DHT22;3324;50.796;7.228;2022-09-09T09:33:24;20.20;99.90
6581;DHT22;3324;50.796;7.228;2022-09-09T09:35:52;20.10;99.90
6581;DHT22;3324;50.796;7.228;2022-09-09T09:38:26;20.00;99.90
6581;DHT22;3324;50.796;7.228;2022-09-09T09:40:58;20.00;99.90
6581;DHT22;3324;50.796;7.228;2022-09-09T09:43:34;19.90;99.90
6581;DHT22;3324;50.796;7.228;2022-09-09T09:46:00;19.90;99.90
6581;DHT22;3324;50.796;7.228;2022-09-09T09:48:28;19.80;99.90
6581;DHT22;3324;50.796;7.228;2022-09-09T09:55:59;19.70;99.90
6581;DHT22;3324;50.796;7.228;2022-09-09T09:58:27;19.70;99.90
6581;DHT22;3324;50.796;7.228;2022-09-09T10:00:56;19.80;99.90
6581;DHT22;3324;50.796;7.228;2022-09-09T10:03:25;19.80;99.90
6581;DHT22;3324;50.796;7.228;2022-09-09T10:05:52;19.80;99.90
6581;DHT22;3324;50.796;7.228;2022-09-09T10:08:18;19.90;99.90
6581;DHT22;3324;50.796;7.228;2022-09-09T10:10:59;20.00;99.90
6581;DHT22;3324;50.796;7.228;2022-09-09T10:32:45;20.40;99.90
6581;DHT22;3324;50.796;7.228;2022-09-09T10:35:31;20.30;99.90
6581;DHT22;3324;50.796;7.228;2022-09-09T10:44:02;20.20;99.90
6581;DHT22;3324;50.796;7.228;2022-09-09T10:46:52;20.30;99.90
6581;DHT22;3324;50.796;7.228;2022-09-09T10:52:24;20.20;99.90
6581;DHT22;3324;50.796;7.228;2022-09-09T10:57:45;20.10;99.90
6581;DHT22;3324;50.796;7.228;2022-09-09T11:00:21;20.10;99.90
6581;DHT22;3324;50.796;7.228;2022-09-09T11:02:58;20.10;99.90
6581;DHT22;3324;50.796;7.228;2022-09-09T11:07:58;20.30;99.90
6581;DHT22;3324;50.796;7.228;2022-09-09T11:11:04;20.50;99.90
6581;DHT22;3324;50.796;7.228;2022-09-09T11:13:49;20.40;99.90
6581;DHT22;3324;50.796;7.228;2022-09-09T11:18:55;20.70;99.90
6581;DHT22;3324;50.796;7.228;2022-09-09T11:21:27;20.90;99.90
6581;DHT22;3324;50.796;7.228;2022-09-09T11:23:58;21.10;99.90
6581;DHT22;3324;50.796;7.228;2022-09-09T11:26:30;21.40;99.90
6581;DHT22;3324;50.796;7.228;2022-09-09T11:29:14;21.50;99.90
6581;DHT22;3324;50.796;7.228;2022-09-09T11:32:04;21.40;99.90
6581;DHT22;3324;50.796;7.228;2022-09-09T11:34:37;21.30;99.90
6581;DHT22;3324;50.796;7.228;2022-09-09T11:40:17;21.40;99.90
6581;DHT22;3324;50.796;7.228;2022-09-09T11:42:45;21.60;99.90
6581;DHT22;3324;50.796;7.228;2022-09-09T11:45:26;21.90;99.90
6581;DHT22;3324;50.796;7.228;2022-09-09T11:47:56;21.80;99.90
6581;DHT22;3324;50.796;7.228;2022-09-09T11:52:49;22.10;99.90
6581;DHT22;3324;50.796;7.228;2022-09-09T11:55:30;22.10;99.90
6581;DHT22;3324;50.796;7.228;2022-09-09T11:58:05;21.80;99.90
6581;DHT22;3324;50.796;7.228;2022-09-09T12:00:41;21.90;99.90
6581;DHT22;3324;50.796;7.228;2022-09-09T12:06:20;22.00;99.90
6581;DHT22;3324;50.796;7.228;2022-09-09T12:08:53;21.80;99.90
6581;DHT22;3324;50.796;7.228;2022-09-09T12:11:28;21.60;99.90
6581;DHT22;3324;50.796;7.228;2022-09-09T12:13:57;21.60;99.90
6581;DHT22;3324;50.796;7.228;2022-09-09T12:16:32;21.50;99.90
6581;DHT22;3324;50.796;7.228;2022-09-09T12:19:05;21.30;99.90
6581;DHT22;3324;50.796;7.228;2022-09-09T12:21:58;21.30;99.90
6581;DHT22;3324;50.796;7.228;2022-09-09T12:27:35;21.30;99.90
6581;DHT22;3324;50.796;7.228;2022-09-09T12:30:15;21.30;99.90
6581;DHT22;3324;50.796;7.228;2022-09-09T12:32:41;21.30;99.90
6581;DHT22;3324;50.796;7.228;2022-09-09T12:35:20;21.30;99.90
6581;DHT22;3324;50.796;7.228;2022-09-09T12:37:52;21.30;99.90
6581;DHT22;3324;50.796;7.228;2022-09-09T12:40:31;21.20;99.90
6581;DHT22;3324;50.796;7.228;2022-09-09T12:43:01;21.30;99.90
6581;DHT22;3324;50.796;7.228;2022-09-09T12:45:30;21.30;99.90
6581;DHT22;3324;50.796;7.228;2022-09-09T12:50:35;21.30;99.90
6581;DHT22;3324;50.796;7.228;2022-09-09T12:53:11;21.30;99.90
6581;DHT22;3324;50.796;7.228;2022-09-09T12:56:08;21.20;99.90
6581;DHT22;3324;50.796;7.228;2022-09-09T12:58:37;21.20;99.90
6581;DHT22;3324;50.796;7.228;2022-09-09T13:01:04;21.30;99.90
6581;DHT22;3324;50.796;7.228;2022-09-09T13:03:31;21.30;99.90
6581;DHT22;3324;50.796;7.228;2022-09-09T13:06:09;21.30;99.90
6581;DHT22;3324;50.796;7.228;2022-09-09T13:08:36;21.20;99.90
6581;DHT22;3324;50.796;7.228;2022-09-09T13:11:07;21.10;99.90
6581;DHT22;3324;50.796;7.228;2022-09-09T13:13:37;21.10;99.90
6581;DHT22;3324;50.796;7.228;2022-09-09T13:16:05;21.00;99.90
6581;DHT22;3324;50.796;7.228;2022-09-09T13:18:40;20.90;99.90
6581;DHT22;3324;50.796;7.228;2022-09-09T13:21:07;20.90;99.90
6581;DHT22;3324;50.796;7.228;2022-09-09T13:23:35;20.80;99.90
6581;DHT22;3324;50.796;7.228;2022-09-09T13:26:53;20.90;99.90
6581;DHT22;3324;50.796;7.228;2022-09-09T13:28:53;21.00;99.90
6581;DHT22;3324;50.796;7.228;2022-09-09T13:31:28;21.00;99.90
6581;DHT22;3324;50.796;7.228;2022-09-09T13:33:54;21.00;99.90
6581;DHT22;3324;50.796;7.228;2022-09-09T13:36:31;21.00;99.90
6581;DHT22;3324;50.796;7.228;2022-09-09T13:38:59;21.00;99.90
6581;DHT22;3324;50.796;7.228;2022-09-09T13:41:36;21.00;99.90
6581;DHT22;3324;50.796;7.228;2022-09-09T13:44:03;20.90;99.90
6581;DHT22;3324;50.796;7.228;2022-09-09T13:54:01;20.50;99.90
6581;DHT22;3324;50.796;7.228;2022-09-09T13:56:27;20.60;99.90
6581;DHT22;3324;50.796;7.228;2022-09-09T13:58:52;20.50;99.90
6581;DHT22;3324;50.796;7.228;2022-09-09T14:01:18;20.60;99.90
6581;DHT22;3324;50.796;7.228;2022-09-09T14:03:43;20.70;99.90
6581;DHT22;3324;50.796;7.228;2022-09-09T14:06:10;20.70;99.90
6581;DHT22;3324;50.796;7.228;2022-09-09T14:08:36;20.80;99.90
6581;DHT22;3324;50.796;7.228;2022-09-09T14:11:05;20.90;99.90
6581;DHT22;3324;50.796;7.228;2022-09-09T14:13:31;20.90;99.90
6581;DHT22;3324;50.796;7.228;2022-09-09T14:15:57;21.00;99.90
6581;DHT22;3324;50.796;7.228;2022-09-09T14:18:22;21.10;99.90
6581;DHT22;3324;50.796;7.228;2022-09-09T14:20:50;21.20;99.90
6581;DHT22;3324;50.796;7.228;2022-09-09T14:23:16;21.40;99.90
6581;DHT22;3324;50.796;7.228;2022-09-09T14:25:45;21.50;99.90
6581;DHT22;3324;50.796;7.228;2022-09-09T14:28:13;21.40;99.90
6581;DHT22;3324;50.796;7.228;2022-09-09T14:30:43;21.20;99.90
6581;DHT22;3324;50.796;7.228;2022-09-09T14:33:11;21.10;99.90
6581;DHT22;3324;50.796;7.228;2022-09-09T14:35:37;21.00;99.90
6581;DHT22;3324;50.796;7.228;2022-09-09T14:38:04;21.00;99.90
6581;DHT22;3324;50.796;7.228;2022-09-09T14:40:30;21.10;99.90
6581;DHT22;3324;50.796;7.228;2022-09-09T14:42:56;21.20;99.90
6581;DHT22;3324;50.796;7.228;2022-09-09T14:45:23;21.40;99.90
6581;DHT22;3324;50.796;7.228;2022-09-09T14:47:50;21.60;99.90
6581;DHT22;3324;50.796;7.228;2022-09-09T14:50:17;21.80;99.90
6581;DHT22;3324;50.796;7.228;2022-09-09T14:52:43;21.60;99.90
6581;DHT22;3324;50.796;7.228;2022-09-09T14:55:09;21.60;99.90
6581;DHT22;3324;50.796;7.228;2022-09-09T14:57:35;21.50;99.90
6581;DHT22;3324;50.796;7.228;2022-09-09T15:00:05;21.30;99.90
6581;DHT22;3324;50.796;7.228;2022-09-09T15:02:31;21.20;99.90
6581;DHT22;3324;50.796;7.228;2022-09-09T15:04:56;21.10;99.90
6581;DHT22;3324;50.796;7.228;2022-09-09T15:07:24;21.10;99.90
6581;DHT22;3324;50.796;7.228;2022-09-09T15:09:50;21.10;99.90
6581;DHT22;3324;50.796;7.228;2022-09-09T15:12:15;21.00;99.90
6581;DHT22;3324;50.796;7.228;2022-09-09T15:14:44;21.00;99.90
6581;DHT22;3324;50.796;7.228;2022-09-09T15:17:10;21.00;99.90
6581;DHT22;3324;50.796;7.228;2022-09-09T15:19:36;20.90;99.90
6581;DHT22;3324;50.796;7.228;2022-09-09T15:22:02;20.80;99.90
6581;DHT22;3324;50.796;7.228;2022-09-09T15:24:28;20.70;99.90
6581;DHT22;3324;50.796;7.228;2022-09-09T15:26:54;20.70;99.90
6581;DHT22;3324;50.796;7.228;2022-09-09T15:29:19;20.60;99.90
6581;DHT22;3324;50.796;7.228;2022-09-09T15:31:45;20.60;99.90
6581;DHT22;3324;50.796;7.228;2022-09-09T15:34:12;20.60;99.90
6581;DHT22;3324;50.796;7.228;2022-09-09T15:36:43;20.60;99.90
6581;DHT22;3324;50.796;7.228;2022-09-09T15:39:14;20.50;99.90
6581;DHT22;3324;50.796;7.228;2022-09-09T15:41:41;20.40;99.90
6581;DHT22;3324;50.796;7.228;2022-09-09T15:44:08;20.20;99.90
6581;DHT22;3324;50.796;7.228;2022-09-09T15:46:38;20.20;99.90
6581;DHT22;3324;50.796;7.228;2022-09-09T15:49:18;20.10;99.90
6581;DHT22;3324;50.796;7.228;2022-09-09T15:51:46;20.00;99.90
6581;DHT22;3324;50.796;7.228;2022-09-09T15:54:15;20.00;99.90
6581;DHT22;3324;50.796;7.228;2022-09-09T15:56:42;20.00;99.90
6581;DHT22;3324;50.796;7.228;2022-09-09T15:59:08;20.00;99.90
6581;DHT22;3324;50.796;7.228;2022-09-09T16:01:34;20.00;99.90
6581;DHT22;3324;50.796;7.228;2022-09-09T16:04:00;20.00;99.90
6581;DHT22;3324;50.796;7.228;2022-09-09T16:06:27;20.00;99.90
6581;DHT22;3324;50.796;7.228;2022-09-09T16:08:54;20.00;99.90
6581;DHT22;3324;50.796;7.228;2022-09-09T16:11:28;20.00;99.90
6581;DHT22;3324;50.796;7.228;2022-09-09T16:13:55;20.00;99.90
6581;DHT22;3324;50.796;7.228;2022-09-09T16:16:23;19.90;99.90
6581;DHT22;3324;50.796;7.228;2022-09-09T16:18:57;19.90;99.90
6581;DHT22;3324;50.796;7.228;2022-09-09T16:21:26;19.90;99.90
6581;DHT22;3324;50.796;7.228;2022-09-09T16:23:55;19.80;99.90
6581;DHT22;3324;50.796;7.228;2022-09-09T16:26:23;19.80;99.90
6581;DHT22;3324;50.796;7.228;2022-09-09T16:28:49;19.70;99.90
6581;DHT22;3324;50.796;7.228;2022-09-09T16:31:19;19.70;99.90
6581;DHT22;3324;50.796;7.228;2022-09-09T16:33:46;19.60;99.90
6581;DHT22;3324;50.796;7.228;2022-09-09T16:36:15;19.60;99.90
6581;DHT22;3324;50.796;7.228;2022-09-09T16:38:42;19.60;99.90
6581;DHT22;3324;50.796;7.228;2022-09-09T16:41:09;19.50;99.90
6581;DHT22;3324;50.796;7.228;2022-09-09T16:43:36;19.40;99.90
6581;DHT22;3324;50.796;7.228;2022-09-09T16:46:03;19.30;99.90
6581;DHT22;3324;50.796;7.228;2022-09-09T16:48:36;19.30;99.90
6581;DHT22;3324;50.796;7.228;2022-09-09T16:51:04;19.20;99.90
6581;DHT22;3324;50.796;7.228;2022-09-09T16:53:31;19.20;99.90
6581;DHT22;3324;50.796;7.228;2022-09-09T16:55:57;19.20;99.90
6581;DHT22;3324;50.796;7.228;2022-09-09T16:58:23;19.10;99.90
6581;DHT22;3324;50.796;7.228;2022-09-09T17:00:49;19.00;99.90
6581;DHT22;3324;50.796;7.228;2022-09-09T17:03:16;19.00;99.90
6581;DHT22;3324;50.796;7.228;2022-09-09T17:05:42;19.20;99.90
6581;DHT22;3324;50.796;7.228;2022-09-09T17:08:07;19.10;99.90
6581;DHT22;3324;50.796;7.228;2022-09-09T17:10:33;19.10;99.90
6581;DHT22;3324;50.796;7.228;2022-09-09T17:12:58;19.00;99.90
6581;DHT22;3324;50.796;7.228;2022-09-09T17:15:24;19.00;99.90
6581;DHT22;3324;50.796;7.228;2022-09-09T17:17:50;19.00;99.90
6581;DHT22;3324;50.796;7.228;2022-09-09T17:20:18;19.00;99.90
6581;DHT22;3324;50.796;7.228;2022-09-09T17:22:44;18.90;99.90
6581;DHT22;3324;50.796;7.228;2022-09-09T17:25:10;18.70;99.90
6581;DHT22;3324;50.796;7.228;2022-09-09T17:27:36;18.60;99.90
6581;DHT22;3324;50.796;7.228;2022-09-09T17:30:02;18.50;99.90
6581;DHT22;3324;50.796;7.228;2022-09-09T17:32:28;18.50;99.90
6581;DHT22;3324;50.796;7.228;2022-09-09T17:34:55;18.40;99.90
6581;DHT22;3324;50.796;7.228;2022-09-09T17:37:21;18.40;99.90
6581;DHT22;3324;50.796;7.228;2022-09-09T17:39:47;18.30;99.90
6581;DHT22;3324;50.796;7.228;2022-09-09T17:42:12;18.30;99.90
6581;DHT22;3324;50.796;7.228;2022-09-09T17:44:38;18.20;99.90
6581;DHT22;3324;50.796;7.228;2022-09-09T17:47:05;18.20;99.90
6581;DHT22;3324;50.796;7.228;2022-09-09T17:49:31;18.20;99.90
6581;DHT22;3324;50.796;7.228;2022-09-09T17:51:57;18.10;99.90
6581;DHT22;3324;50.796;7.228;2022-09-09T17:54:23;18.00;99.90
6581;DHT22;3324;50.796;7.228;2022-09-09T17:56:48;18.00;99.90
6581;DHT22;3324;50.796;7.228;2022-09-09T17:59:17;18.00;99.90
6581;DHT22;3324;50.796;7.228;2022-09-09T18:01:45;18.00;99.90
6581;DHT22;3324;50.796;7.228;2022-09-09T18:04:13;18.00;99.90
6581;DHT22;3324;50.796;7.228;2022-09-09T18:06:41;17.90;99.90
6581;DHT22;3324;50.796;7.228;2022-09-09T18:09:10;17.90;99.90
6581;DHT22;3324;50.796;7.228;2022-09-09T18:11:43;17.80;99.90
6581;DHT22;3324;50.796;7.228;2022-09-09T18:14:21;17.80;99.90
6581;DHT22;3324;50.796;7.228;2022-09-09T18:16:47;17.80;99.90